sensor_id;sensor_type;location;lat;lon;timestamp;pressure;altitude;pressure_sealevel;temperature;humidity
54592;BME280;40488;48.558;18.150;2023-02-18T00:01:50;99785.75;;;7.60;97.01
54592;BME280;40488;48.558;18.150;2023-02-18T00:04:19;99773.78;;;7.53;96.75
54592;BME280;40488;48.558;18.150;2023-02-18T00:06:49;99762.03;;;7.61;96.93
54592;BME280;40488;48.558;18.150;2023-02-18T00:09:19;99763.81;;;7.68;96.34
54592;BME280;40488;48.558;18.150;2023-02-18T00:11:48;99770.03;;;7.93;96.54
54592;BME280;40488;48.558;18.150;2023-02-18T00:14:17;99761.00;;;8.18;97.02
54592;BME280;40488;48.558;18.150;2023-02-18T00:16:46;99757.06;;;8.50;96.52
54592;BME280;40488;48.558;18.150;2023-02-18T00:19:17;99758.84;;;8.58;96.36
54592;BME280;40488;48.558;18.150;2023-02-18T00:21:48;99748.66;;;8.55;95.20
54592;BME280;40488;48.558;18.150;2023-02-18T00:24:17;99752.16;;;8.69;95.68
54592;BME280;40488;48.558;18.150;2023-02-18T00:26:49;99752.28;;;8.85;95.58
54592;BME280;40488;48.558;18.150;2023-02-18T00:29:19;99753.97;;;8.84;94.21
54592;BME280;40488;48.558;18.150;2023-02-18T00:31:48;99747.22;;;8.89;94.28
54592;BME280;40488;48.558;18.150;2023-02-18T00:34:17;99762.63;;;9.12;93.42
54592;BME280;40488;48.558;18.150;2023-02-18T00:36:46;99748.25;;;9.18;93.45
54592;BME280;40488;48.558;18.150;2023-02-18T00:39:16;99748.25;;;9.18;93.20
54592;BME280;40488;48.558;18.150;2023-02-18T00:41:45;99749.13;;;9.26;92.76
54592;BME280;40488;48.558;18.150;2023-02-18T00:44:14;99747.47;;;9.28;92.09
54592;BME280;40488;48.558;18.150;2023-02-18T00:46:43;99746.63;;;9.29;91.51
54592;BME280;40488;48.558;18.150;2023-02-18T00:49:15;99751.69;;;9.26;91.80
54592;BME280;40488;48.558;18.150;2023-02-18T00:51:44;99750.00;;;9.31;90.93
54592;BME280;40488;48.558;18.150;2023-02-18T00:54:13;99727.94;;;9.26;90.71
54592;BME280;40488;48.558;18.150;2023-02-18T00:56:43;99741.59;;;9.40;90.55
54592;BME280;40488;48.558;18.150;2023-02-18T00:59:12;99735.63;;;9.38;90.14
54592;BME280;40488;48.558;18.150;2023-02-18T01:01:41;99735.63;;;9.38;89.95
54592;BME280;40488;48.558;18.150;2023-02-18T01:04:10;99727.13;;;9.39;89.63
54592;BME280;40488;48.558;18.150;2023-02-18T01:06:39;99722.03;;;9.37;89.89
54592;BME280;40488;48.558;18.150;2023-02-18T01:09:09;99712.69;;;9.36;89.79
54592;BME280;40488;48.558;18.150;2023-02-18T01:11:38;99714.38;;;9.36;88.93
54592;BME280;40488;48.558;18.150;2023-02-18T01:14:08;99725.47;;;9.44;89.09
54592;BME280;40488;48.558;18.150;2023-02-18T01:16:37;99714.44;;;9.53;88.80
54592;BME280;40488;48.558;18.150;2023-02-18T01:19:07;99718.69;;;9.55;88.73
54592;BME280;40488;48.558;18.150;2023-02-18T01:21:37;99717.00;;;9.53;88.59
54592;BME280;40488;48.558;18.150;2023-02-18T01:24:07;99726.34;;;9.48;88.16
54592;BME280;40488;48.558;18.150;2023-02-18T01:26:36;99719.50;;;9.43;88.16
54592;BME280;40488;48.558;18.150;2023-02-18T01:29:05;99711.06;;;9.48;88.34
54592;BME280;40488;48.558;18.150;2023-02-18T01:31:35;99711.94;;;9.59;88.46
54592;BME280;40488;48.558;18.150;2023-02-18T01:34:04;99711.13;;;9.69;87.94
54592;BME280;40488;48.558;18.150;2023-02-18T01:36:32;99711.97;;;9.72;88.31
54592;BME280;40488;48.558;18.150;2023-02-18T01:39:02;99705.22;;;9.86;87.79
54592;BME280;40488;48.558;18.150;2023-02-18T01:41:32;99706.94;;;9.86;87.25
54592;BME280;40488;48.558;18.150;2023-02-18T01:44:14;99705.22;;;9.85;87.43
54592;BME280;40488;48.558;18.150;2023-02-18T01:46:46;99706.06;;;9.87;87.37
54592;BME280;40488;48.558;18.150;2023-02-18T01:49:18;99718.00;;;9.91;87.42
54592;BME280;40488;48.558;18.150;2023-02-18T01:51:51;99704.38;;;9.92;87.48
54592;BME280;40488;48.558;18.150;2023-02-18T01:54:26;99704.41;;;10.01;87.04
54592;BME280;40488;48.558;18.150;2023-02-18T01:57:00;99708.69;;;10.09;87.17
54592;BME280;40488;48.558;18.150;2023-02-18T01:59:33;99711.22;;;10.09;86.89
54592;BME280;40488;48.558;18.150;2023-02-18T02:02:10;99705.25;;;10.10;86.98
54592;BME280;40488;48.558;18.150;2023-02-18T02:04:41;99705.28;;;10.15;86.68
54592;BME280;40488;48.558;18.150;2023-02-18T02:07:10;99711.22;;;10.11;86.56
54592;BME280;40488;48.558;18.150;2023-02-18T02:09:40;99709.53;;;10.07;86.42
54592;BME280;40488;48.558;18.150;2023-02-18T02:12:24;99700.16;;;10.10;86.65
54592;BME280;40488;48.558;18.150;2023-02-18T02:15:15;99704.47;;;10.19;86.78
54592;BME280;40488;48.558;18.150;2023-02-18T02:18:01;99696.81;;;10.16;86.82
54592;BME280;40488;48.558;18.150;2023-02-18T02:20:57;99707.84;;;10.18;86.68
54592;BME280;40488;48.558;18.150;2023-02-18T02:27:03;99716.34;;;10.20;86.38
54592;BME280;40488;48.558;18.150;2023-02-18T02:29:55;99709.56;;;10.13;86.15
54592;BME280;40488;48.558;18.150;2023-02-18T02:32:57;99712.09;;;10.18;86.39
54592;BME280;40488;48.558;18.150;2023-02-18T02:35:34;99722.31;;;10.13;86.54
54592;BME280;40488;48.558;18.150;2023-02-18T02:38:08;99732.53;;;10.31;86.19
54592;BME280;40488;48.558;18.150;2023-02-18T02:40:45;99733.38;;;10.39;86.12
54592;BME280;40488;48.558;18.150;2023-02-18T02:43:23;99728.31;;;10.48;85.95
54592;BME280;40488;48.558;18.150;2023-02-18T02:45:59;99726.59;;;10.41;85.20
54592;BME280;40488;48.558;18.150;2023-02-18T02:48:37;99755.47;;;10.34;85.06
54592;BME280;40488;48.558;18.150;2023-02-18T02:51:14;99757.19;;;10.17;85.74
54592;BME280;40488;48.558;18.150;2023-02-18T02:53:46;99760.53;;;10.10;85.87
54592;BME280;40488;48.558;18.150;2023-02-18T02:56:16;99763.13;;;10.19;85.92
54592;BME280;40488;48.558;18.150;2023-02-18T02:58:54;99767.31;;;10.11;85.69
54592;BME280;40488;48.558;18.150;2023-02-18T03:01:36;99780.84;;;9.89;86.26
54592;BME280;40488;48.558;18.150;2023-02-18T03:04:26;99793.56;;;9.80;86.57
54592;BME280;40488;48.558;18.150;2023-02-18T03:07:27;99813.13;;;9.81;87.19
54592;BME280;40488;48.558;18.150;2023-02-18T03:10:21;99802.94;;;9.81;87.30
54592;BME280;40488;48.558;18.150;2023-02-18T03:12:59;99806.31;;;9.80;87.86
54592;BME280;40488;48.558;18.150;2023-02-18T03:15:37;99813.09;;;9.78;87.92
54592;BME280;40488;48.558;18.150;2023-02-18T03:18:15;99804.63;;;9.79;88.84
54592;BME280;40488;48.558;18.150;2023-02-18T03:20:50;99796.09;;;9.77;89.17
54592;BME280;40488;48.558;18.150;2023-02-18T03:23:27;99802.06;;;9.76;89.26
54592;BME280;40488;48.558;18.150;2023-02-18T03:25:58;99813.94;;;9.74;90.14
54592;BME280;40488;48.558;18.150;2023-02-18T03:28:29;99816.50;;;9.74;90.01
54592;BME280;40488;48.558;18.150;2023-02-18T03:31:06;99813.91;;;9.68;90.67
54592;BME280;40488;48.558;18.150;2023-02-18T03:33:42;99812.16;;;9.61;90.98
54592;BME280;40488;48.558;18.150;2023-02-18T03:36:12;99813.03;;;9.60;91.01
54592;BME280;40488;48.558;18.150;2023-02-18T03:38:51;99802.75;;;9.51;91.04
54592;BME280;40488;48.558;18.150;2023-02-18T03:41:22;99813.84;;;9.57;92.30
54592;BME280;40488;48.558;18.150;2023-02-18T03:43:51;99816.34;;;9.53;92.00
54592;BME280;40488;48.558;18.150;2023-02-18T03:46:21;99818.03;;;9.44;92.59
54592;BME280;40488;48.558;18.150;2023-02-18T03:48:50;99825.63;;;9.43;92.35
54592;BME280;40488;48.558;18.150;2023-02-18T03:51:20;99827.41;;;9.50;93.13
54592;BME280;40488;48.558;18.150;2023-02-18T03:53:51;99816.34;;;9.47;92.78
54592;BME280;40488;48.558;18.150;2023-02-18T03:56:20;99812.09;;;9.47;93.03
54592;BME280;40488;48.558;18.150;2023-02-18T03:58:49;99820.56;;;9.40;92.44
54592;BME280;40488;48.558;18.150;2023-02-18T04:01:18;99828.13;;;9.32;93.38
54592;BME280;40488;48.558;18.150;2023-02-18T04:03:47;99821.31;;;9.31;93.16
54592;BME280;40488;48.558;18.150;2023-02-18T04:06:16;99822.22;;;9.41;93.67
54592;BME280;40488;48.558;18.150;2023-02-18T04:08:44;99826.50;;;9.43;93.78
54592;BME280;40488;48.558;18.150;2023-02-18T04:11:15;99833.25;;;9.38;93.19
54592;BME280;40488;48.558;18.150;2023-02-18T04:13:44;99845.97;;;9.32;93.48
54592;BME280;40488;48.558;18.150;2023-02-18T04:16:13;99838.28;;;9.29;93.28
54592;BME280;40488;48.558;18.150;2023-02-18T04:18:42;99829.75;;;9.21;93.32
54592;BME280;40488;48.558;18.150;2023-02-18T04:21:11;99819.50;;;9.12;93.23
54592;BME280;40488;48.558;18.150;2023-02-18T04:23:39;99815.16;;;9.02;92.65
54592;BME280;40488;48.558;18.150;2023-02-18T04:26:08;99815.13;;;8.98;92.80
54592;BME280;40488;48.558;18.150;2023-02-18T04:28:39;99815.97;;;8.94;93.20
54592;BME280;40488;48.558;18.150;2023-02-18T04:31:07;99821.03;;;8.89;93.72
54592;BME280;40488;48.558;18.150;2023-02-18T04:33:38;99815.09;;;8.92;93.10
54592;BME280;40488;48.558;18.150;2023-02-18T04:36:07;99810.84;;;8.91;92.75
54592;BME280;40488;48.558;18.150;2023-02-18T04:38:36;99804.03;;;8.85;93.58
54592;BME280;40488;48.558;18.150;2023-02-18T04:41:05;99811.63;;;8.84;93.78
54592;BME280;40488;48.558;18.150;2023-02-18T04:43:34;99809.91;;;8.78;93.43
54592;BME280;40488;48.558;18.150;2023-02-18T04:46:04;99803.06;;;8.72;93.39
54592;BME280;40488;48.558;18.150;2023-02-18T04:48:34;99797.09;;;8.69;93.01
54592;BME280;40488;48.558;18.150;2023-02-18T04:51:03;99812.31;;;8.64;93.08
54592;BME280;40488;48.558;18.150;2023-02-18T04:53:32;99817.31;;;8.57;93.74
54592;BME280;40488;48.558;18.150;2023-02-18T04:56:00;99819.91;;;8.60;94.09
54592;BME280;40488;48.558;18.150;2023-02-18T04:58:29;99825.84;;;8.62;94.11
54592;BME280;40488;48.558;18.150;2023-02-18T05:00:59;99819.19;;;8.76;94.41
54592;BME280;40488;48.558;18.150;2023-02-18T05:03:30;99819.22;;;8.79;93.73
54592;BME280;40488;48.558;18.150;2023-02-18T05:05:59;99825.25;;;8.87;94.24
54592;BME280;40488;48.558;18.150;2023-02-18T05:08:28;99824.50;;;9.00;94.61
54592;BME280;40488;48.558;18.150;2023-02-18T05:10:57;99825.34;;;9.01;94.42
54592;BME280;40488;48.558;18.150;2023-02-18T05:13:25;99827.06;;;9.02;93.45
54592;BME280;40488;48.558;18.150;2023-02-18T05:15:54;99825.44;;;9.14;93.75
54592;BME280;40488;48.558;18.150;2023-02-18T05:18:23;99811.00;;;9.10;94.14
54592;BME280;40488;48.558;18.150;2023-02-18T05:20:53;99825.34;;;8.99;94.01
54592;BME280;40488;48.558;18.150;2023-02-18T05:23:23;99831.25;;;8.95;93.46
54592;BME280;40488;48.558;18.150;2023-02-18T05:25:53;99834.66;;;8.94;93.31
54592;BME280;40488;48.558;18.150;2023-02-18T05:28:22;99829.66;;;9.06;93.35
54592;BME280;40488;48.558;18.150;2023-02-18T05:30:50;99829.69;;;9.09;93.49
54592;BME280;40488;48.558;18.150;2023-02-18T05:33:19;99833.03;;;9.05;93.41
54592;BME280;40488;48.558;18.150;2023-02-18T05:35:48;99832.19;;;9.06;93.55
54592;BME280;40488;48.558;18.150;2023-02-18T05:38:18;99829.63;;;9.05;93.29
54592;BME280;40488;48.558;18.150;2023-02-18T05:40:47;99833.00;;;8.99;92.89
54592;BME280;40488;48.558;18.150;2023-02-18T05:43:16;99838.84;;;8.88;93.03
54592;BME280;40488;48.558;18.150;2023-02-18T05:45:45;99844.66;;;8.76;93.41
54592;BME280;40488;48.558;18.150;2023-02-18T05:48:14;99846.28;;;8.71;92.90
54592;BME280;40488;48.558;18.150;2023-02-18T05:50:42;99843.00;;;8.78;93.47
54592;BME280;40488;48.558;18.150;2023-02-18T05:53:11;99836.16;;;8.72;92.90
54592;BME280;40488;48.558;18.150;2023-02-18T05:55:45;99847.22;;;8.77;93.81
54592;BME280;40488;48.558;18.150;2023-02-18T05:58:14;99844.69;;;8.79;93.47
54592;BME280;40488;48.558;18.150;2023-02-18T06:00:43;99848.00;;;8.72;93.07
54592;BME280;40488;48.558;18.150;2023-02-18T06:03:12;99841.19;;;8.71;93.90
54592;BME280;40488;48.558;18.150;2023-02-18T06:05:41;99844.59;;;8.70;93.05
54592;BME280;40488;48.558;18.150;2023-02-18T06:08:10;99853.09;;;8.72;93.43
54592;BME280;40488;48.558;18.150;2023-02-18T06:10:39;99844.63;;;8.73;93.27
54592;BME280;40488;48.558;18.150;2023-02-18T06:13:10;99839.59;;;8.79;93.26
54592;BME280;40488;48.558;18.150;2023-02-18T06:15:39;99844.75;;;8.85;93.48
54592;BME280;40488;48.558;18.150;2023-02-18T06:18:07;99840.53;;;8.89;93.52
54592;BME280;40488;48.558;18.150;2023-02-18T06:20:38;99844.78;;;8.91;94.00
54592;BME280;40488;48.558;18.150;2023-02-18T06:23:06;99860.91;;;8.92;94.06
54592;BME280;40488;48.558;18.150;2023-02-18T06:25:37;99854.94;;;8.85;93.23
54592;BME280;40488;48.558;18.150;2023-02-18T06:28:06;99862.50;;;8.79;93.22
54592;BME280;40488;48.558;18.150;2023-02-18T06:30:36;99849.72;;;8.76;93.58
54592;BME280;40488;48.558;18.150;2023-02-18T06:33:05;99859.06;;;8.72;93.52
54592;BME280;40488;48.558;18.150;2023-02-18T06:35:34;99852.28;;;8.73;93.34
54592;BME280;40488;48.558;18.150;2023-02-18T06:38:03;99849.78;;;8.79;93.67
54592;BME280;40488;48.558;18.150;2023-02-18T06:40:32;99849.84;;;8.88;93.85
54592;BME280;40488;48.558;18.150;2023-02-18T06:43:01;99841.47;;;9.01;93.88
54592;BME280;40488;48.558;18.150;2023-02-18T06:45:30;99853.41;;;9.08;94.35
54592;BME280;40488;48.558;18.150;2023-02-18T06:48:00;99849.22;;;9.15;94.11
54592;BME280;40488;48.558;18.150;2023-02-18T06:50:29;99851.78;;;9.19;94.01
54592;BME280;40488;48.558;18.150;2023-02-18T06:52:58;99853.53;;;9.26;93.46
54592;BME280;40488;48.558;18.150;2023-02-18T06:55:27;99851.09;;;9.37;93.91
54592;BME280;40488;48.558;18.150;2023-02-18T06:57:56;99853.69;;;9.44;93.99
54592;BME280;40488;48.558;18.150;2023-02-18T07:00:25;99855.44;;;9.58;93.62
54592;BME280;40488;48.558;18.150;2023-02-18T07:02:55;99849.56;;;9.63;93.59
54592;BME280;40488;48.558;18.150;2023-02-18T07:05:25;99861.47;;;9.66;93.73
54592;BME280;40488;48.558;18.150;2023-02-18T07:07:54;99856.38;;;9.72;93.68
54592;BME280;40488;48.558;18.150;2023-02-18T07:10:23;99853.03;;;9.76;93.46
54592;BME280;40488;48.558;18.150;2023-02-18T07:12:52;99858.97;;;9.78;93.24
54592;BME280;40488;48.558;18.150;2023-02-18T07:15:20;99862.38;;;9.80;92.74
54592;BME280;40488;48.558;18.150;2023-02-18T07:17:51;99872.59;;;9.83;92.92
54592;BME280;40488;48.558;18.150;2023-02-18T07:20:20;99865.84;;;9.91;92.53
54592;BME280;40488;48.558;18.150;2023-02-18T07:22:51;99872.63;;;9.92;92.36
54592;BME280;40488;48.558;18.150;2023-02-18T07:25:20;99850.47;;;9.77;92.25
54592;BME280;40488;48.558;18.150;2023-02-18T07:27:49;99872.63;;;9.89;92.14
54592;BME280;40488;48.558;18.150;2023-02-18T07:30:19;99876.03;;;9.88;91.88
54592;BME280;40488;48.558;18.150;2023-02-18T07:32:49;99869.22;;;9.87;91.29
54592;BME280;40488;48.558;18.150;2023-02-18T07:35:18;99868.34;;;9.85;92.00
54592;BME280;40488;48.558;18.150;2023-02-18T07:37:49;99867.53;;;9.86;91.61
54592;BME280;40488;48.558;18.150;2023-02-18T07:40:19;99881.16;;;9.97;91.54
54592;BME280;40488;48.558;18.150;2023-02-18T07:42:49;99877.81;;;10.04;91.31
54592;BME280;40488;48.558;18.150;2023-02-18T07:45:19;99880.34;;;10.05;91.25
54592;BME280;40488;48.558;18.150;2023-02-18T07:47:47;99862.56;;;10.13;91.05
54592;BME280;40488;48.558;18.150;2023-02-18T07:50:16;99871.94;;;10.17;90.83
54592;BME280;40488;48.558;18.150;2023-02-18T07:52:45;99870.22;;;10.18;90.36
54592;BME280;40488;48.558;18.150;2023-02-18T07:55:15;99863.44;;;10.23;90.27
54592;BME280;40488;48.558;18.150;2023-02-18T07:57:44;99862.63;;;10.28;89.73
54592;BME280;40488;48.558;18.150;2023-02-18T08:00:23;99859.25;;;10.44;89.50
54592;BME280;40488;48.558;18.150;2023-02-18T08:02:52;99871.19;;;10.51;89.73
54592;BME280;40488;48.558;18.150;2023-02-18T08:05:21;99861.00;;;10.57;89.03
54592;BME280;40488;48.558;18.150;2023-02-18T08:07:50;99862.75;;;10.67;88.85
54592;BME280;40488;48.558;18.150;2023-02-18T08:10:20;99857.63;;;10.73;88.76
54592;BME280;40488;48.558;18.150;2023-02-18T08:12:49;99853.38;;;10.75;88.88
54592;BME280;40488;48.558;18.150;2023-02-18T08:15:18;99852.53;;;10.83;88.56
54592;BME280;40488;48.558;18.150;2023-02-18T08:17:46;99850.84;;;10.94;88.60
54592;BME280;40488;48.558;18.150;2023-02-18T08:20:15;99847.44;;;10.99;88.08
54592;BME280;40488;48.558;18.150;2023-02-18T08:22:44;99840.63;;;11.03;87.79
54592;BME280;40488;48.558;18.150;2023-02-18T08:25:13;99839.75;;;11.07;88.00
54592;BME280;40488;48.558;18.150;2023-02-18T08:27:57;99845.75;;;11.18;87.79
54592;BME280;40488;48.558;18.150;2023-02-18T08:30:26;99838.91;;;11.23;87.65
54592;BME280;40488;48.558;18.150;2023-02-18T08:32:55;99837.19;;;11.31;87.41
54592;BME280;40488;48.558;18.150;2023-02-18T08:35:24;99842.31;;;11.49;87.02
54592;BME280;40488;48.558;18.150;2023-02-18T08:37:52;99838.84;;;11.58;86.61
54592;BME280;40488;48.558;18.150;2023-02-18T08:40:22;99837.16;;;11.61;86.26
54592;BME280;40488;48.558;18.150;2023-02-18T08:42:51;99844.81;;;11.63;86.16
54592;BME280;40488;48.558;18.150;2023-02-18T08:45:21;99845.66;;;11.63;85.97
54592;BME280;40488;48.558;18.150;2023-02-18T08:47:50;99848.25;;;11.68;85.72
54592;BME280;40488;48.558;18.150;2023-02-18T08:50:39;99840.56;;;11.60;85.21
54592;BME280;40488;48.558;18.150;2023-02-18T08:53:08;99845.66;;;11.57;85.10
54592;BME280;40488;48.558;18.150;2023-02-18T08:55:39;99852.53;;;11.49;85.07
54592;BME280;40488;48.558;18.150;2023-02-18T08:58:08;99857.63;;;11.40;85.14
54592;BME280;40488;48.558;18.150;2023-02-18T09:00:40;99852.53;;;11.41;85.36
54592;BME280;40488;48.558;18.150;2023-02-18T09:03:12;99855.94;;;11.36;85.15
54592;BME280;40488;48.558;18.150;2023-02-18T09:05:41;99860.19;;;11.31;85.00
54592;BME280;40488;48.558;18.150;2023-02-18T09:08:10;99861.06;;;11.27;85.07
54592;BME280;40488;48.558;18.150;2023-02-18T09:10:39;99849.13;;;11.26;85.27
54592;BME280;40488;48.558;18.150;2023-02-18T09:13:07;99852.53;;;11.22;85.28
54592;BME280;40488;48.558;18.150;2023-02-18T09:15:36;99847.44;;;11.19;85.35
54592;BME280;40488;48.558;18.150;2023-02-18T09:18:06;99844.03;;;11.17;85.53
54592;BME280;40488;48.558;18.150;2023-02-18T09:20:35;99848.28;;;11.15;85.37
54592;BME280;40488;48.558;18.150;2023-02-18T09:23:04;99849.13;;;11.17;85.28
54592;BME280;40488;48.558;18.150;2023-02-18T09:25:33;99851.69;;;11.17;84.97
54592;BME280;40488;48.558;18.150;2023-02-18T09:28:01;99851.69;;;11.17;84.99
54592;BME280;40488;48.558;18.150;2023-02-18T09:30:30;99847.44;;;11.11;84.85
54592;BME280;40488;48.558;18.150;2023-02-18T09:32:59;99844.03;;;11.11;84.72
54592;BME280;40488;48.558;18.150;2023-02-18T09:35:29;99844.03;;;11.11;84.78
54592;BME280;40488;48.558;18.150;2023-02-18T09:37:59;99842.34;;;11.10;84.77
54592;BME280;40488;48.558;18.150;2023-02-18T09:40:31;99838.06;;;11.09;84.73
54592;BME280;40488;48.558;18.150;2023-02-18T09:43:04;99838.06;;;11.10;84.72
54592;BME280;40488;48.558;18.150;2023-02-18T09:45:34;99838.94;;;11.11;84.80
54592;BME280;40488;48.558;18.150;2023-02-18T09:48:03;99842.34;;;11.10;84.75
54592;BME280;40488;48.558;18.150;2023-02-18T09:50:34;99845.72;;;11.09;84.93
54592;BME280;40488;48.558;18.150;2023-02-18T09:53:03;99838.91;;;11.05;84.80
54592;BME280;40488;48.558;18.150;2023-02-18T09:55:35;99840.63;;;11.10;84.73
54592;BME280;40488;48.558;18.150;2023-02-18T09:58:10;99832.13;;;11.10;84.80
54592;BME280;40488;48.558;18.150;2023-02-18T10:00:43;99841.47;;;11.18;84.89
54592;BME280;40488;48.558;18.150;2023-02-18T10:03:16;99831.25;;;11.27;84.88
54592;BME280;40488;48.558;18.150;2023-02-18T10:05:55;99823.56;;;11.39;84.94
54592;BME280;40488;48.558;18.150;2023-02-18T10:08:27;99820.09;;;11.54;85.06
54592;BME280;40488;48.558;18.150;2023-02-18T10:10:57;99823.50;;;11.65;85.04
54592;BME280;40488;48.558;18.150;2023-02-18T10:13:29;99825.22;;;11.75;84.97
54592;BME280;40488;48.558;18.150;2023-02-18T10:15:58;99821.78;;;11.82;84.99
54592;BME280;40488;48.558;18.150;2023-02-18T10:18:29;99816.63;;;11.88;84.84
54592;BME280;40488;48.558;18.150;2023-02-18T10:21:05;99814.91;;;11.96;84.54
54592;BME280;40488;48.558;18.150;2023-02-18T10:23:37;99804.63;;;12.02;84.21
54592;BME280;40488;48.558;18.150;2023-02-18T10:26:12;99801.22;;;12.03;84.15
54592;BME280;40488;48.558;18.150;2023-02-18T10:28:43;99804.63;;;12.05;84.19
54592;BME280;40488;48.558;18.150;2023-02-18T10:31:16;99801.22;;;12.06;84.36
54592;BME280;40488;48.558;18.150;2023-02-18T10:33:53;99795.22;;;12.04;84.37
54592;BME280;40488;48.558;18.150;2023-02-18T10:36:30;99796.97;;;12.01;84.63
54592;BME280;40488;48.558;18.150;2023-02-18T10:42:09;99785.03;;;11.98;84.40
54592;BME280;40488;48.558;18.150;2023-02-18T10:44:50;99785.91;;;11.96;84.36
54592;BME280;40488;48.558;18.150;2023-02-18T10:47:36;99776.53;;;11.98;83.80
54592;BME280;40488;48.558;18.150;2023-02-18T10:50:10;99773.97;;;11.95;82.87
54592;BME280;40488;48.558;18.150;2023-02-18T10:52:44;99759.50;;;11.94;82.23
54592;BME280;40488;48.558;18.150;2023-02-18T10:55:16;99767.16;;;11.95;81.92
54592;BME280;40488;48.558;18.150;2023-02-18T10:57:48;99768.03;;;11.94;81.16
54592;BME280;40488;48.558;18.150;2023-02-18T11:00:19;99771.44;;;11.93;81.00
54592;BME280;40488;48.558;18.150;2023-02-18T11:03:13;99775.69;;;11.91;81.12
54592;BME280;40488;48.558;18.150;2023-02-18T11:05:44;99760.34;;;11.91;81.06
54592;BME280;40488;48.558;18.150;2023-02-18T11:08:15;99775.72;;;11.88;81.04
54592;BME280;40488;48.558;18.150;2023-02-18T11:10:48;99768.91;;;11.84;81.26
54592;BME280;40488;48.558;18.150;2023-02-18T11:13:23;99763.81;;;11.78;81.68
54592;BME280;40488;48.558;18.150;2023-02-18T11:15:56;99761.28;;;11.66;82.66
54592;BME280;40488;48.558;18.150;2023-02-18T11:18:31;99765.59;;;11.61;83.11
54592;BME280;40488;48.558;18.150;2023-02-18T11:21:03;99761.34;;;11.51;83.73
54592;BME280;40488;48.558;18.150;2023-02-18T11:23:45;99748.59;;;11.37;84.73
54592;BME280;40488;48.558;18.150;2023-02-18T11:26:17;99757.13;;;11.38;85.20
54592;BME280;40488;48.558;18.150;2023-02-18T11:28:56;99750.31;;;11.31;85.81
54592;BME280;40488;48.558;18.150;2023-02-18T11:31:39;99729.91;;;11.16;86.79
54592;BME280;40488;48.558;18.150;2023-02-18T11:34:15;99732.50;;;11.17;86.98
54592;BME280;40488;48.558;18.150;2023-02-18T11:36:46;99726.53;;;11.14;87.27
54592;BME280;40488;48.558;18.150;2023-02-18T11:39:20;99724.84;;;11.10;87.89
54592;BME280;40488;48.558;18.150;2023-02-18T11:41:55;99727.41;;;11.08;88.00
54592;BME280;40488;48.558;18.150;2023-02-18T11:44:30;99727.41;;;11.08;88.15
54592;BME280;40488;48.558;18.150;2023-02-18T11:47:02;99729.94;;;11.07;88.45
54592;BME280;40488;48.558;18.150;2023-02-18T11:49:33;99721.44;;;11.05;88.45
54592;BME280;40488;48.558;18.150;2023-02-18T11:52:07;99708.66;;;11.02;88.48
54592;BME280;40488;48.558;18.150;2023-02-18T11:54:41;99712.94;;;10.97;88.74
54592;BME280;40488;48.558;18.150;2023-02-18T11:57:12;99709.53;;;10.95;88.67
54592;BME280;40488;48.558;18.150;2023-02-18T11:59:42;99701.88;;;10.93;88.70
54592;BME280;40488;48.558;18.150;2023-02-18T12:02:29;99706.13;;;10.96;89.21
54592;BME280;40488;48.558;18.150;2023-02-18T12:05:03;99702.75;;;10.94;89.19
54592;BME280;40488;48.558;18.150;2023-02-18T12:07:41;99697.63;;;10.88;89.33
54592;BME280;40488;48.558;18.150;2023-02-18T12:10:21;99693.41;;;10.84;89.53
54592;BME280;40488;48.558;18.150;2023-02-18T12:12:55;99686.59;;;10.80;89.83
54592;BME280;40488;48.558;18.150;2023-02-18T12:15:38;99687.44;;;10.75;89.98
54592;BME280;40488;48.558;18.150;2023-02-18T12:18:37;99672.16;;;10.69;90.41
54592;BME280;40488;48.558;18.150;2023-02-18T12:21:27;99666.19;;;10.67;90.87
54592;BME280;40488;48.558;18.150;2023-02-18T12:24:05;99666.19;;;10.63;91.17
54592;BME280;40488;48.558;18.150;2023-02-18T12:26:50;99661.97;;;10.60;91.59
54592;BME280;40488;48.558;18.150;2023-02-18T12:29:39;99652.59;;;10.56;91.98
54592;BME280;40488;48.558;18.150;2023-02-18T12:32:27;99653.44;;;10.61;92.51
54592;BME280;40488;48.558;18.150;2023-02-18T12:35:29;99653.44;;;10.64;92.88
54592;BME280;40488;48.558;18.150;2023-02-18T12:38:13;99651.72;;;10.66;93.09
54592;BME280;40488;48.558;18.150;2023-02-18T12:41:03;99644.06;;;10.66;93.45
54592;BME280;40488;48.558;18.150;2023-02-18T12:43:49;99634.69;;;10.65;93.54
54592;BME280;40488;48.558;18.150;2023-02-18T12:46:35;99635.56;;;10.64;94.18
54592;BME280;40488;48.558;18.150;2023-02-18T12:49:23;99623.66;;;10.62;94.00
54592;BME280;40488;48.558;18.150;2023-02-18T12:52:02;99625.34;;;10.58;94.45
54592;BME280;40488;48.558;18.150;2023-02-18T12:54:47;99607.53;;;10.55;94.43
54592;BME280;40488;48.558;18.150;2023-02-18T13:00:43;99598.16;;;10.51;94.79
54592;BME280;40488;48.558;18.150;2023-02-18T13:06:19;99603.25;;;10.54;95.76
54592;BME280;40488;48.558;18.150;2023-02-18T13:08:58;99599.88;;;10.55;95.30
54592;BME280;40488;48.558;18.150;2023-02-18T13:11:39;99587.94;;;10.56;95.88
54592;BME280;40488;48.558;18.150;2023-02-18T13:14:17;99570.94;;;10.58;95.93
54592;BME280;40488;48.558;18.150;2023-02-18T13:16:51;99576.03;;;10.59;96.16
54592;BME280;40488;48.558;18.150;2023-02-18T13:19:25;99568.38;;;10.62;96.12
54592;BME280;40488;48.558;18.150;2023-02-18T13:21:57;99566.66;;;10.64;96.41
54592;BME280;40488;48.558;18.150;2023-02-18T13:24:32;99546.22;;;10.66;96.26
54592;BME280;40488;48.558;18.150;2023-02-18T13:27:10;99539.41;;;10.66;96.28
54592;BME280;40488;48.558;18.150;2023-02-18T13:29:47;99541.13;;;10.64;96.13
54592;BME280;40488;48.558;18.150;2023-02-18T13:32:26;99526.69;;;10.65;96.32
54592;BME280;40488;48.558;18.150;2023-02-18T13:35:00;99536.00;;;10.63;96.10
54592;BME280;40488;48.558;18.150;2023-02-18T13:37:34;99519.88;;;10.64;96.02